sensor_id;sensor_type;location;lat;lon;timestamp;P1;durP1;ratioP1;P2;durP2;ratioP2
19854;SDS011;10088;47.946;2.532;2022-12-15T00:01:15;54.37;;;31.23;;
19854;SDS011;10088;47.946;2.532;2022-12-15T00:03:59;59.87;;;32.50;;
19854;SDS011;10088;47.946;2.532;2022-12-15T00:06:43;59.33;;;30.83;;
19854;SDS011;10088;47.946;2.532;2022-12-15T00:09:27;57.67;;;30.80;;
19854;SDS011;10088;47.946;2.532;2022-12-15T00:12:11;57.93;;;31.03;;
19854;SDS011;10088;47.946;2.532;2022-12-15T00:14:55;57.87;;;31.97;;
19854;SDS011;10088;47.946;2.532;2022-12-15T00:17:39;54.53;;;29.27;;
19854;SDS011;10088;47.946;2.532;2022-12-15T00:20:23;56.37;;;31.40;;
19854;SDS011;10088;47.946;2.532;2022-12-15T00:23:08;60.40;;;31.50;;
19854;SDS011;10088;47.946;2.532;2022-12-15T00:25:52;57.47;;;31.33;;
19854;SDS011;10088;47.946;2.532;2022-12-15T00:28:36;57.67;;;29.67;;
19854;SDS011;10088;47.946;2.532;2022-12-15T00:31:20;52.67;;;29.57;;
19854;SDS011;10088;47.946;2.532;2022-12-15T00:34:04;57.40;;;30.33;;
19854;SDS011;10088;47.946;2.532;2022-12-15T00:36:48;63.03;;;32.40;;
19854;SDS011;10088;47.946;2.532;2022-12-15T00:39:32;58.57;;;32.13;;
19854;SDS011;10088;47.946;2.532;2022-12-15T00:41:57;55.93;;;30.70;;
19854;SDS011;10088;47.946;2.532;2022-12-15T00:44:22;63.77;;;32.20;;
19854;SDS011;10088;47.946;2.532;2022-12-15T00:46:48;57.97;;;32.00;;
19854;SDS011;10088;47.946;2.532;2022-12-15T00:49:20;62.57;;;33.63;;
19854;SDS011;10088;47.946;2.532;2022-12-15T00:52:03;54.97;;;30.50;;
19854;SDS011;10088;47.946;2.532;2022-12-15T00:54:47;58.80;;;30.73;;
19854;SDS011;10088;47.946;2.532;2022-12-15T00:57:31;55.70;;;30.13;;
19854;SDS011;10088;47.946;2.532;2022-12-15T01:00:15;54.93;;;31.47;;
19854;SDS011;10088;47.946;2.532;2022-12-15T01:02:59;55.57;;;31.90;;
19854;SDS011;10088;47.946;2.532;2022-12-15T01:05:43;58.03;;;31.13;;
19854;SDS011;10088;47.946;2.532;2022-12-15T01:08:27;49.33;;;29.20;;
19854;SDS011;10088;47.946;2.532;2022-12-15T01:11:11;59.10;;;31.83;;
19854;SDS011;10088;47.946;2.532;2022-12-15T01:13:55;50.30;;;30.60;;
19854;SDS011;10088;47.946;2.532;2022-12-15T01:16:39;53.43;;;28.77;;
19854;SDS011;10088;47.946;2.532;2022-12-15T01:19:23;53.67;;;29.67;;
19854;SDS011;10088;47.946;2.532;2022-12-15T01:22:07;54.67;;;29.63;;
19854;SDS011;10088;47.946;2.532;2022-12-15T01:24:32;55.90;;;29.77;;
19854;SDS011;10088;47.946;2.532;2022-12-15T01:26:58;55.80;;;30.50;;
19854;SDS011;10088;47.946;2.532;2022-12-15T01:29:23;52.93;;;30.37;;
19854;SDS011;10088;47.946;2.532;2022-12-15T01:31:49;51.43;;;30.73;;
19854;SDS011;10088;47.946;2.532;2022-12-15T01:34:14;53.93;;;29.33;;
19854;SDS011;10088;47.946;2.532;2022-12-15T01:36:40;48.10;;;28.60;;
19854;SDS011;10088;47.946;2.532;2022-12-15T01:39:05;49.87;;;29.67;;
19854;SDS011;10088;47.946;2.532;2022-12-15T01:41:30;53.80;;;30.63;;
19854;SDS011;10088;47.946;2.532;2022-12-15T01:44:13;55.30;;;30.90;;
19854;SDS011;10088;47.946;2.532;2022-12-15T01:46:38;53.67;;;28.37;;
19854;SDS011;10088;47.946;2.532;2022-12-15T01:49:12;50.77;;;27.77;;
19854;SDS011;10088;47.946;2.532;2022-12-15T01:51:39;50.30;;;30.53;;
19854;SDS011;10088;47.946;2.532;2022-12-15T01:54:17;48.67;;;28.27;;
19854;SDS011;10088;47.946;2.532;2022-12-15T01:56:54;47.97;;;28.47;;
19854;SDS011;10088;47.946;2.532;2022-12-15T01:59:26;47.83;;;27.70;;
19854;SDS011;10088;47.946;2.532;2022-12-15T02:01:52;46.30;;;26.97;;
19854;SDS011;10088;47.946;2.532;2022-12-15T02:04:20;42.87;;;28.03;;
19854;SDS011;10088;47.946;2.532;2022-12-15T02:06:46;49.50;;;27.97;;
19854;SDS011;10088;47.946;2.532;2022-12-15T02:09:12;52.73;;;29.67;;
19854;SDS011;10088;47.946;2.532;2022-12-15T02:14:13;58.27;;;31.47;;
19854;SDS011;10088;47.946;2.532;2022-12-15T02:21:54;55.40;;;30.67;;
19854;SDS011;10088;47.946;2.532;2022-12-15T02:30:02;51.10;;;29.30;;
19854;SDS011;10088;47.946;2.532;2022-12-15T02:32:33;53.00;;;29.50;;
19854;SDS011;10088;47.946;2.532;2022-12-15T02:35:02;51.63;;;28.40;;
19854;SDS011;10088;47.946;2.532;2022-12-15T02:37:33;47.43;;;29.60;;
19854;SDS011;10088;47.946;2.532;2022-12-15T02:39:59;50.40;;;30.47;;
19854;SDS011;10088;47.946;2.532;2022-12-15T02:42:25;49.27;;;28.87;;
19854;SDS011;10088;47.946;2.532;2022-12-15T02:45:13;47.97;;;29.10;;
19854;SDS011;10088;47.946;2.532;2022-12-15T03:00:49;43.60;;;24.83;;
19854;SDS011;10088;47.946;2.532;2022-12-15T03:03:16;48.27;;;26.77;;
19854;SDS011;10088;47.946;2.532;2022-12-15T03:05:45;47.20;;;27.00;;
19854;SDS011;10088;47.946;2.532;2022-12-15T03:08:11;47.57;;;26.47;;
19854;SDS011;10088;47.946;2.532;2022-12-15T03:10:36;44.87;;;27.17;;
19854;SDS011;10088;47.946;2.532;2022-12-15T03:13:02;44.40;;;26.27;;
19854;SDS011;10088;47.946;2.532;2022-12-15T03:15:27;48.17;;;26.83;;
19854;SDS011;10088;47.946;2.532;2022-12-15T03:17:52;43.33;;;25.67;;
19854;SDS011;10088;47.946;2.532;2022-12-15T03:20:18;47.73;;;27.30;;
19854;SDS011;10088;47.946;2.532;2022-12-15T03:22:43;46.83;;;26.67;;
19854;SDS011;10088;47.946;2.532;2022-12-15T03:25:08;52.33;;;27.80;;
19854;SDS011;10088;47.946;2.532;2022-12-15T03:27:34;46.73;;;27.00;;
19854;SDS011;10088;47.946;2.532;2022-12-15T03:29:59;47.67;;;28.17;;
19854;SDS011;10088;47.946;2.532;2022-12-15T03:32:25;50.27;;;27.93;;
19854;SDS011;10088;47.946;2.532;2022-12-15T03:34:50;49.30;;;25.77;;
19854;SDS011;10088;47.946;2.532;2022-12-15T03:37:15;51.80;;;28.67;;
19854;SDS011;10088;47.946;2.532;2022-12-15T03:39:40;45.27;;;25.87;;
19854;SDS011;10088;47.946;2.532;2022-12-15T03:42:06;47.13;;;26.30;;
19854;SDS011;10088;47.946;2.532;2022-12-15T03:44:31;42.77;;;26.80;;
19854;SDS011;10088;47.946;2.532;2022-12-15T03:46:56;44.57;;;25.00;;
19854;SDS011;10088;47.946;2.532;2022-12-15T03:49:22;45.00;;;25.47;;
19854;SDS011;10088;47.946;2.532;2022-12-15T03:51:47;48.97;;;28.83;;
19854;SDS011;10088;47.946;2.532;2022-12-15T03:54:12;45.27;;;26.87;;
19854;SDS011;10088;47.946;2.532;2022-12-15T03:56:38;46.87;;;26.97;;
19854;SDS011;10088;47.946;2.532;2022-12-15T03:59:03;47.03;;;27.00;;
19854;SDS011;10088;47.946;2.532;2022-12-15T04:01:29;48.57;;;28.10;;
19854;SDS011;10088;47.946;2.532;2022-12-15T04:03:55;50.50;;;26.83;;
19854;SDS011;10088;47.946;2.532;2022-12-15T04:06:20;50.97;;;27.77;;
19854;SDS011;10088;47.946;2.532;2022-12-15T04:08:46;44.27;;;27.00;;
19854;SDS011;10088;47.946;2.532;2022-12-15T04:11:11;46.70;;;27.90;;
19854;SDS011;10088;47.946;2.532;2022-12-15T04:13:36;42.37;;;26.50;;
19854;SDS011;10088;47.946;2.532;2022-12-15T04:16:02;46.63;;;27.40;;
19854;SDS011;10088;47.946;2.532;2022-12-15T04:18:28;48.73;;;27.77;;
19854;SDS011;10088;47.946;2.532;2022-12-15T04:20:53;48.87;;;26.83;;
19854;SDS011;10088;47.946;2.532;2022-12-15T04:23:19;47.07;;;27.63;;
19854;SDS011;10088;47.946;2.532;2022-12-15T04:25:44;51.00;;;28.60;;
19854;SDS011;10088;47.946;2.532;2022-12-15T04:28:28;49.00;;;27.33;;
19854;SDS011;10088;47.946;2.532;2022-12-15T04:31:16;46.50;;;28.07;;
19854;SDS011;10088;47.946;2.532;2022-12-15T04:34:03;46.70;;;28.00;;
19854;SDS011;10088;47.946;2.532;2022-12-15T04:36:48;46.70;;;26.53;;
19854;SDS011;10088;47.946;2.532;2022-12-15T04:39:42;49.67;;;27.93;;
19854;SDS011;10088;47.946;2.532;2022-12-15T04:42:27;52.27;;;28.83;;
19854;SDS011;10088;47.946;2.532;2022-12-15T04:45:11;43.50;;;26.97;;
19854;SDS011;10088;47.946;2.532;2022-12-15T04:47:56;48.30;;;27.17;;
19854;SDS011;10088;47.946;2.532;2022-12-15T04:50:40;49.07;;;25.80;;
19854;SDS011;10088;47.946;2.532;2022-12-15T04:53:24;49.60;;;27.27;;
19854;SDS011;10088;47.946;2.532;2022-12-15T04:56:12;57.90;;;28.97;;
19854;SDS011;10088;47.946;2.532;2022-12-15T04:58:55;54.40;;;30.37;;
19854;SDS011;10088;47.946;2.532;2022-12-15T05:01:40;50.97;;;26.77;;
19854;SDS011;10088;47.946;2.532;2022-12-15T05:04:23;46.20;;;28.80;;
19854;SDS011;10088;47.946;2.532;2022-12-15T05:07:07;45.10;;;27.17;;
19854;SDS011;10088;47.946;2.532;2022-12-15T05:09:51;44.90;;;26.83;;
19854;SDS011;10088;47.946;2.532;2022-12-15T05:12:35;53.07;;;30.50;;
19854;SDS011;10088;47.946;2.532;2022-12-15T05:15:19;47.37;;;28.73;;
19854;SDS011;10088;47.946;2.532;2022-12-15T05:18:03;52.47;;;27.33;;
19854;SDS011;10088;47.946;2.532;2022-12-15T05:20:47;54.10;;;32.23;;
19854;SDS011;10088;47.946;2.532;2022-12-15T05:23:31;54.20;;;28.80;;
19854;SDS011;10088;47.946;2.532;2022-12-15T05:26:15;46.60;;;28.20;;
19854;SDS011;10088;47.946;2.532;2022-12-15T05:28:59;47.93;;;27.13;;
19854;SDS011;10088;47.946;2.532;2022-12-15T05:31:43;76.33;;;40.20;;
19854;SDS011;10088;47.946;2.532;2022-12-15T05:36:48;46.40;;;28.90;;
19854;SDS011;10088;47.946;2.532;2022-12-15T05:39:13;50.00;;;28.37;;
19854;SDS011;10088;47.946;2.532;2022-12-15T05:41:38;56.43;;;29.50;;
19854;SDS011;10088;47.946;2.532;2022-12-15T05:44:03;51.63;;;29.10;;
19854;SDS011;10088;47.946;2.532;2022-12-15T05:46:29;46.70;;;27.47;;
19854;SDS011;10088;47.946;2.532;2022-12-15T05:48:54;50.80;;;29.90;;
19854;SDS011;10088;47.946;2.532;2022-12-15T05:51:19;45.40;;;26.93;;
19854;SDS011;10088;47.946;2.532;2022-12-15T05:53:45;53.70;;;29.90;;
19854;SDS011;10088;47.946;2.532;2022-12-15T05:56:11;50.03;;;29.47;;
19854;SDS011;10088;47.946;2.532;2022-12-15T05:58:37;49.67;;;28.07;;
19854;SDS011;10088;47.946;2.532;2022-12-15T06:01:06;49.30;;;28.47;;
19854;SDS011;10088;47.946;2.532;2022-12-15T06:03:32;46.97;;;28.33;;
19854;SDS011;10088;47.946;2.532;2022-12-15T06:05:58;50.07;;;30.53;;
19854;SDS011;10088;47.946;2.532;2022-12-15T06:08:24;52.70;;;29.13;;
19854;SDS011;10088;47.946;2.532;2022-12-15T06:10:53;55.50;;;28.97;;
19854;SDS011;10088;47.946;2.532;2022-12-15T06:13:19;50.17;;;28.13;;
19854;SDS011;10088;47.946;2.532;2022-12-15T06:15:52;48.77;;;29.77;;
19854;SDS011;10088;47.946;2.532;2022-12-15T06:18:18;50.50;;;29.60;;
19854;SDS011;10088;47.946;2.532;2022-12-15T06:20:43;52.83;;;30.77;;
19854;SDS011;10088;47.946;2.532;2022-12-15T06:23:09;54.17;;;31.03;;
19854;SDS011;10088;47.946;2.532;2022-12-15T06:25:34;46.43;;;27.77;;
19854;SDS011;10088;47.946;2.532;2022-12-15T06:27:59;50.33;;;28.60;;
19854;SDS011;10088;47.946;2.532;2022-12-15T06:30:24;50.43;;;31.27;;
19854;SDS011;10088;47.946;2.532;2022-12-15T06:32:50;56.57;;;34.07;;
19854;SDS011;10088;47.946;2.532;2022-12-15T06:35:15;53.60;;;29.53;;
19854;SDS011;10088;47.946;2.532;2022-12-15T06:37:40;50.63;;;28.30;;
19854;SDS011;10088;47.946;2.532;2022-12-15T06:40:06;46.60;;;27.43;;
19854;SDS011;10088;47.946;2.532;2022-12-15T06:42:31;45.10;;;28.47;;
19854;SDS011;10088;47.946;2.532;2022-12-15T06:44:56;48.80;;;27.27;;
19854;SDS011;10088;47.946;2.532;2022-12-15T06:47:22;46.80;;;28.13;;
19854;SDS011;10088;47.946;2.532;2022-12-15T06:49:47;46.83;;;27.67;;
19854;SDS011;10088;47.946;2.532;2022-12-15T06:52:12;44.17;;;27.80;;
19854;SDS011;10088;47.946;2.532;2022-12-15T06:54:38;51.07;;;28.23;;
19854;SDS011;10088;47.946;2.532;2022-12-15T06:57:03;48.80;;;27.67;;
19854;SDS011;10088;47.946;2.532;2022-12-15T06:59:28;46.23;;;27.83;;
19854;SDS011;10088;47.946;2.532;2022-12-15T07:01:55;51.50;;;27.93;;
19854;SDS011;10088;47.946;2.532;2022-12-15T07:04:20;47.03;;;27.60;;
19854;SDS011;10088;47.946;2.532;2022-12-15T07:06:45;45.13;;;27.13;;
19854;SDS011;10088;47.946;2.532;2022-12-15T07:09:12;56.33;;;30.20;;
19854;SDS011;10088;47.946;2.532;2022-12-15T07:11:37;48.30;;;29.53;;
19854;SDS011;10088;47.946;2.532;2022-12-15T07:14:04;47.57;;;26.77;;
19854;SDS011;10088;47.946;2.532;2022-12-15T07:16:29;46.50;;;28.37;;
19854;SDS011;10088;47.946;2.532;2022-12-15T07:18:55;45.90;;;28.37;;
19854;SDS011;10088;47.946;2.532;2022-12-15T07:21:20;45.47;;;27.33;;
19854;SDS011;10088;47.946;2.532;2022-12-15T07:23:45;48.93;;;28.50;;
19854;SDS011;10088;47.946;2.532;2022-12-15T07:26:11;46.10;;;28.10;;
19854;SDS011;10088;47.946;2.532;2022-12-15T07:28:36;51.37;;;30.07;;
19854;SDS011;10088;47.946;2.532;2022-12-15T07:31:02;43.80;;;26.93;;
19854;SDS011;10088;47.946;2.532;2022-12-15T07:33:28;47.00;;;29.10;;
19854;SDS011;10088;47.946;2.532;2022-12-15T07:35:54;51.23;;;30.80;;
19854;SDS011;10088;47.946;2.532;2022-12-15T07:38:19;43.63;;;28.37;;
19854;SDS011;10088;47.946;2.532;2022-12-15T07:40:45;43.80;;;27.70;;
19854;SDS011;10088;47.946;2.532;2022-12-15T07:43:10;49.13;;;31.90;;
19854;SDS011;10088;47.946;2.532;2022-12-15T07:45:35;49.00;;;29.50;;
19854;SDS011;10088;47.946;2.532;2022-12-15T07:48:01;47.73;;;29.27;;
19854;SDS011;10088;47.946;2.532;2022-12-15T07:50:26;47.30;;;30.00;;
19854;SDS011;10088;47.946;2.532;2022-12-15T07:52:53;49.87;;;28.10;;
19854;SDS011;10088;47.946;2.532;2022-12-15T07:55:18;47.77;;;27.93;;
19854;SDS011;10088;47.946;2.532;2022-12-15T07:57:45;45.53;;;27.00;;
19854;SDS011;10088;47.946;2.532;2022-12-15T08:00:11;44.53;;;27.77;;
19854;SDS011;10088;47.946;2.532;2022-12-15T08:02:39;48.80;;;27.60;;
19854;SDS011;10088;47.946;2.532;2022-12-15T08:05:04;46.57;;;27.97;;
19854;SDS011;10088;47.946;2.532;2022-12-15T08:07:30;46.30;;;28.17;;
19854;SDS011;10088;47.946;2.532;2022-12-15T08:09:55;42.10;;;26.30;;
19854;SDS011;10088;47.946;2.532;2022-12-15T08:12:20;47.43;;;28.33;;
19854;SDS011;10088;47.946;2.532;2022-12-15T08:14:45;42.03;;;26.50;;
19854;SDS011;10088;47.946;2.532;2022-12-15T08:17:11;41.27;;;26.77;;
19854;SDS011;10088;47.946;2.532;2022-12-15T08:19:37;41.50;;;25.53;;
19854;SDS011;10088;47.946;2.532;2022-12-15T08:22:02;42.60;;;26.23;;
19854;SDS011;10088;47.946;2.532;2022-12-15T08:24:27;43.07;;;27.03;;
19854;SDS011;10088;47.946;2.532;2022-12-15T08:26:53;47.97;;;27.90;;
19854;SDS011;10088;47.946;2.532;2022-12-15T08:29:18;43.63;;;26.57;;
19854;SDS011;10088;47.946;2.532;2022-12-15T08:31:43;41.43;;;25.87;;
19854;SDS011;10088;47.946;2.532;2022-12-15T08:34:09;39.33;;;26.53;;
19854;SDS011;10088;47.946;2.532;2022-12-15T08:36:35;43.40;;;26.60;;
19854;SDS011;10088;47.946;2.532;2022-12-15T08:39:00;42.97;;;26.10;;
19854;SDS011;10088;47.946;2.532;2022-12-15T08:41:27;45.97;;;26.67;;
19854;SDS011;10088;47.946;2.532;2022-12-15T08:43:53;45.20;;;26.70;;
19854;SDS011;10088;47.946;2.532;2022-12-15T08:46:19;39.53;;;24.87;;
19854;SDS011;10088;47.946;2.532;2022-12-15T08:48:45;40.77;;;25.27;;
19854;SDS011;10088;47.946;2.532;2022-12-15T08:51:10;43.63;;;26.83;;
19854;SDS011;10088;47.946;2.532;2022-12-15T08:53:36;41.13;;;25.63;;
19854;SDS011;10088;47.946;2.532;2022-12-15T08:56:04;40.80;;;24.97;;
19854;SDS011;10088;47.946;2.532;2022-12-15T08:58:30;40.07;;;25.73;;
19854;SDS011;10088;47.946;2.532;2022-12-15T09:01:02;43.20;;;26.37;;
19854;SDS011;10088;47.946;2.532;2022-12-15T09:03:28;44.87;;;25.07;;
19854;SDS011;10088;47.946;2.532;2022-12-15T09:05:53;43.77;;;26.70;;
19854;SDS011;10088;47.946;2.532;2022-12-15T09:08:19;38.47;;;24.33;;
19854;SDS011;10088;47.946;2.532;2022-12-15T09:10:44;36.50;;;24.73;;
19854;SDS011;10088;47.946;2.532;2022-12-15T09:13:09;38.20;;;25.97;;
19854;SDS011;10088;47.946;2.532;2022-12-15T09:15:34;42.07;;;26.90;;
19854;SDS011;10088;47.946;2.532;2022-12-15T09:18:00;37.77;;;24.83;;
19854;SDS011;10088;47.946;2.532;2022-12-15T09:20:25;40.77;;;25.47;;
19854;SDS011;10088;47.946;2.532;2022-12-15T09:22:50;39.07;;;25.27;;
19854;SDS011;10088;47.946;2.532;2022-12-15T09:25:16;48.30;;;30.67;;
19854;SDS011;10088;47.946;2.532;2022-12-15T09:27:41;42.97;;;26.10;;
19854;SDS011;10088;47.946;2.532;2022-12-15T09:30:06;43.17;;;26.67;;
19854;SDS011;10088;47.946;2.532;2022-12-15T09:32:33;46.13;;;25.97;;
19854;SDS011;10088;47.946;2.532;2022-12-15T09:34:58;40.87;;;24.23;;
19854;SDS011;10088;47.946;2.532;2022-12-15T09:37:23;45.77;;;27.57;;
19854;SDS011;10088;47.946;2.532;2022-12-15T09:39:49;43.20;;;26.63;;
19854;SDS011;10088;47.946;2.532;2022-12-15T09:42:21;41.97;;;25.67;;
19854;SDS011;10088;47.946;2.532;2022-12-15T09:44:47;38.07;;;25.93;;
19854;SDS011;10088;47.946;2.532;2022-12-15T09:50:00;35.20;;;24.80;;
19854;SDS011;10088;47.946;2.532;2022-12-15T09:52:30;38.13;;;23.67;;
19854;SDS011;10088;47.946;2.532;2022-12-15T09:54:57;39.77;;;25.40;;
19854;SDS011;10088;47.946;2.532;2022-12-15T10:02:29;36.03;;;24.23;;
19854;SDS011;10088;47.946;2.532;2022-12-15T10:07:55;37.27;;;24.53;;
19854;SDS011;10088;47.946;2.532;2022-12-15T10:10:24;36.60;;;25.97;;
19854;SDS011;10088;47.946;2.532;2022-12-15T10:12:55;34.73;;;24.90;;
19854;SDS011;10088;47.946;2.532;2022-12-15T10:15:34;37.83;;;23.53;;
19854;SDS011;10088;47.946;2.532;2022-12-15T10:20:39;38.00;;;25.27;;
19854;SDS011;10088;47.946;2.532;2022-12-15T10:23:09;32.73;;;22.13;;
19854;SDS011;10088;47.946;2.532;2022-12-15T10:25:36;34.73;;;21.37;;
19854;SDS011;10088;47.946;2.532;2022-12-15T10:33:17;34.73;;;22.37;;
19854;SDS011;10088;47.946;2.532;2022-12-15T10:35:43;31.77;;;21.20;;
19854;SDS011;10088;47.946;2.532;2022-12-15T10:38:52;36.10;;;22.80;;
19854;SDS011;10088;47.946;2.532;2022-12-15T10:41:00;33.73;;;22.37;;
19854;SDS011;10088;47.946;2.532;2022-12-15T10:43:33;33.53;;;21.97;;
19854;SDS011;10088;47.946;2.532;2022-12-15T10:46:13;32.23;;;21.57;;
19854;SDS011;10088;47.946;2.532;2022-12-15T10:48:40;33.47;;;22.67;;
19854;SDS011;10088;47.946;2.532;2022-12-15T10:53:48;30.67;;;20.63;;
19854;SDS011;10088;47.946;2.532;2022-12-15T10:56:32;34.77;;;23.27;;
19854;SDS011;10088;47.946;2.532;2022-12-15T10:58:59;37.30;;;25.43;;
19854;SDS011;10088;47.946;2.532;2022-12-15T11:01:25;37.00;;;23.27;;
19854;SDS011;10088;47.946;2.532;2022-12-15T11:03:51;41.63;;;25.10;;
19854;SDS011;10088;47.946;2.532;2022-12-15T11:06:21;33.63;;;23.17;;
19854;SDS011;10088;47.946;2.532;2022-12-15T11:08:49;32.67;;;21.90;;
19854;SDS011;10088;47.946;2.532;2022-12-15T11:24:42;31.50;;;21.73;;
19854;SDS011;10088;47.946;2.532;2022-12-15T11:32:54;29.20;;;20.13;;
19854;SDS011;10088;47.946;2.532;2022-12-15T11:35:47;27.03;;;18.47;;
19854;SDS011;10088;47.946;2.532;2022-12-15T11:44:33;25.03;;;17.97;;
19854;SDS011;10088;47.946;2.532;2022-12-15T12:02:42;44.40;;;28.47;;
19854;SDS011;10088;47.946;2.532;2022-12-15T12:05:47;21.73;;;16.43;;
19854;SDS011;10088;47.946;2.532;2022-12-15T12:11:47;22.47;;;17.20;;
19854;SDS011;10088;47.946;2.532;2022-12-15T12:19:54;18.63;;;14.97;;
19854;SDS011;10088;47.946;2.532;2022-12-15T12:22:26;26.63;;;18.80;;
19854;SDS011;10088;47.946;2.532;2022-12-15T12:27:31;34.33;;;23.10;;
19854;SDS011;10088;47.946;2.532;2022-12-15T12:29:59;18.27;;;15.13;;
19854;SDS011;10088;47.946;2.532;2022-12-15T12:32:41;19.90;;;15.10;;
19854;SDS011;10088;47.946;2.532;2022-12-15T12:35:12;20.17;;;16.73;;
19854;SDS011;10088;47.946;2.532;2022-12-15T12:37:43;20.40;;;15.37;;
19854;SDS011;10088;47.946;2.532;2022-12-15T12:40:16;19.77;;;14.77;;
19854;SDS011;10088;47.946;2.532;2022-12-15T12:42:45;16.33;;;13.33;;
19854;SDS011;10088;47.946;2.532;2022-12-15T12:45:12;17.20;;;13.77;;
19854;SDS011;10088;47.946;2.532;2022-12-15T12:47:39;19.93;;;15.13;;
19854;SDS011;10088;47.946;2.532;2022-12-15T12:50:12;18.90;;;15.00;;
19854;SDS011;10088;47.946;2.532;2022-12-15T12:52:39;21.30;;;15.17;;
19854;SDS011;10088;47.946;2.532;2022-12-15T12:57:42;17.13;;;13.53;;
19854;SDS011;10088;47.946;2.532;2022-12-15T13:02:53;19.17;;;14.37;;
19854;SDS011;10088;47.946;2.532;2022-12-15T13:07:52;17.43;;;13.97;;
19854;SDS011;10088;47.946;2.532;2022-12-15T13:10:19;19.13;;;12.77;;
19854;SDS011;10088;47.946;2.532;2022-12-15T13:15:18;19.93;;;13.93;;
19854;SDS011;10088;47.946;2.532;2022-12-15T13:17:49;16.37;;;13.13;;
19854;SDS011;10088;47.946;2.532;2022-12-15T13:20:23;20.40;;;13.63;;
19854;SDS011;10088;47.946;2.532;2022-12-15T13:22:49;18.47;;;13.83;;
19854;SDS011;10088;47.946;2.532;2022-12-15T13:28:00;19.83;;;14.00;;
19854;SDS011;10088;47.946;2.532;2022-12-15T13:30:26;19.60;;;13.97;;
19854;SDS011;10088;47.946;2.532;2022-12-15T13:33:12;19.70;;;13.67;;
19854;SDS011;10088;47.946;2.532;2022-12-15T13:35:38;18.90;;;13.40;;
19854;SDS011;10088;47.946;2.532;2022-12-15T13:38:07;16.27;;;11.70;;
19854;SDS011;10088;47.946;2.532;2022-12-15T13:43:09;15.83;;;12.93;;
19854;SDS011;10088;47.946;2.532;2022-12-15T13:45:57;16.83;;;12.60;;
19854;SDS011;10088;47.946;2.532;2022-12-15T13:48:29;16.93;;;12.10;;
19854;SDS011;10088;47.946;2.532;2022-12-15T13:53:36;15.37;;;12.40;;
19854;SDS011;10088;47.946;2.532;2022-12-15T13:56:14;17.00;;;12.13;;
19854;SDS011;10088;47.946;2.532;2022-12-15T13:58:43;14.93;;;11.80;;
19854;SDS011;10088;47.946;2.532;2022-12-15T14:01:23;16.03;;;11.00;;
19854;SDS011;10088;47.946;2.532;2022-12-15T14:06:25;13.97;;;10.60;;
19854;SDS011;10088;47.946;2.532;2022-12-15T14:08:51;14.07;;;11.00;;
19854;SDS011;10088;47.946;2.532;2022-12-15T14:11:20;12.77;;;9.67;;
19854;SDS011;10088;47.946;2.532;2022-12-15T14:13:46;12.83;;;9.47;;
19854;SDS011;10088;47.946;2.532;2022-12-15T14:16:19;13.33;;;11.43;;
19854;SDS011;10088;47.946;2.532;2022-12-15T14:21:30;13.43;;;10.53;;
19854;SDS011;10088;47.946;2.532;2022-12-15T14:23:55;15.73;;;11.97;;
19854;SDS011;10088;47.946;2.532;2022-12-15T14:26:24;12.73;;;10.43;;
19854;SDS011;10088;47.946;2.532;2022-12-15T14:28:57;12.90;;;9.80;;
19854;SDS011;10088;47.946;2.532;2022-12-15T14:31:23;13.33;;;10.10;;
19854;SDS011;10088;47.946;2.532;2022-12-15T14:33:50;18.07;;;14.30;;
19854;SDS011;10088;47.946;2.532;2022-12-15T14:36:17;13.57;;;10.10;;
19854;SDS011;10088;47.946;2.532;2022-12-15T14:38:57;14.27;;;11.17;;
19854;SDS011;10088;47.946;2.532;2022-12-15T14:41:33;11.93;;;9.60;;
19854;SDS011;10088;47.946;2.532;2022-12-15T14:44:01;15.50;;;9.30;;
19854;SDS011;10088;47.946;2.532;2022-12-15T14:46:27;12.27;;;10.20;;
19854;SDS011;10088;47.946;2.532;2022-12-15T14:48:54;17.50;;;14.20;;
19854;SDS011;10088;47.946;2.532;2022-12-15T14:51:20;13.00;;;11.10;;
19854;SDS011;10088;47.946;2.532;2022-12-15T14:53:47;17.17;;;13.63;;
19854;SDS011;10088;47.946;2.532;2022-12-15T14:56:19;15.47;;;10.47;;
19854;SDS011;10088;47.946;2.532;2022-12-15T14:58:46;18.40;;;12.43;;
19854;SDS011;10088;47.946;2.532;2022-12-15T15:01:24;12.37;;;9.97;;
19854;SDS011;10088;47.946;2.532;2022-12-15T15:04:23;12.60;;;9.80;;
19854;SDS011;10088;47.946;2.532;2022-12-15T15:06:41;13.90;;;10.20;;
19854;SDS011;10088;47.946;2.532;2022-12-15T15:09:15;13.73;;;10.00;;
19854;SDS011;10088;47.946;2.532;2022-12-15T15:11:42;13.50;;;11.00;;
19854;SDS011;10088;47.946;2.532;2022-12-15T15:14:20;16.43;;;11.60;;
19854;SDS011;10088;47.946;2.532;2022-12-15T15:17:04;17.20;;;11.30;;
19854;SDS011;10088;47.946;2.532;2022-12-15T15:19:29;14.07;;;10.60;;
19854;SDS011;10088;47.946;2.532;2022-12-15T15:21:57;12.63;;;9.80;;
19854;SDS011;10088;47.946;2.532;2022-12-15T15:24:32;13.93;;;10.20;;
19854;SDS011;10088;47.946;2.532;2022-12-15T15:27:33;15.97;;;11.40;;
19854;SDS011;10088;47.946;2.532;2022-12-15T15:29:50;14.67;;;9.77;;
19854;SDS011;10088;47.946;2.532;2022-12-15T15:32:19;19.40;;;10.43;;
19854;SDS011;10088;47.946;2.532;2022-12-15T15:34:45;18.00;;;10.43;;
19854;SDS011;10088;47.946;2.532;2022-12-15T15:37:18;17.17;;;11.87;;
19854;SDS011;10088;47.946;2.532;2022-12-15T15:39:46;18.50;;;11.90;;
19854;SDS011;10088;47.946;2.532;2022-12-15T15:42:12;14.67;;;10.23;;
19854;SDS011;10088;47.946;2.532;2022-12-15T15:44:37;15.43;;;10.67;;
19854;SDS011;10088;47.946;2.532;2022-12-15T15:47:04;15.77;;;11.43;;
19854;SDS011;10088;47.946;2.532;2022-12-15T15:49:30;17.90;;;11.43;;
19854;SDS011;10088;47.946;2.532;2022-12-15T15:51:55;14.90;;;10.73;;
19854;SDS011;10088;47.946;2.532;2022-12-15T15:54:21;18.60;;;11.37;;
19854;SDS011;10088;47.946;2.532;2022-12-15T15:56:47;17.87;;;12.33;;
19854;SDS011;10088;47.946;2.532;2022-12-15T15:59:13;15.77;;;10.97;;
19854;SDS011;10088;47.946;2.532;2022-12-15T16:01:40;15.57;;;11.10;;
19854;SDS011;10088;47.946;2.532;2022-12-15T16:04:05;19.37;;;12.27;;
19854;SDS011;10088;47.946;2.532;2022-12-15T16:06:31;21.47;;;13.43;;
19854;SDS011;10088;47.946;2.532;2022-12-15T16:08:56;32.27;;;13.00;;
19854;SDS011;10088;47.946;2.532;2022-12-15T16:11:22;26.43;;;12.97;;
19854;SDS011;10088;47.946;2.532;2022-12-15T16:13:49;19.87;;;11.30;;
19854;SDS011;10088;47.946;2.532;2022-12-15T16:16:18;20.87;;;12.57;;
19854;SDS011;10088;47.946;2.532;2022-12-15T16:18:44;19.63;;;12.00;;
19854;SDS011;10088;47.946;2.532;2022-12-15T16:21:11;17.37;;;11.90;;
19854;SDS011;10088;47.946;2.532;2022-12-15T16:23:42;21.00;;;11.37;;
19854;SDS011;10088;47.946;2.532;2022-12-15T16:26:56;16.17;;;9.83;;
19854;SDS011;10088;47.946;2.532;2022-12-15T16:29:58;18.93;;;12.43;;
19854;SDS011;10088;47.946;2.532;2022-12-15T16:32:33;15.73;;;11.27;;
19854;SDS011;10088;47.946;2.532;2022-12-15T16:35:31;16.87;;;11.47;;
19854;SDS011;10088;47.946;2.532;2022-12-15T16:38:25;16.60;;;12.07;;
19854;SDS011;10088;47.946;2.532;2022-12-15T16:41:03;19.40;;;11.77;;
19854;SDS011;10088;47.946;2.532;2022-12-15T16:44:08;18.30;;;12.00;;
19854;SDS011;10088;47.946;2.532;2022-12-15T16:46:42;24.43;;;12.40;;
19854;SDS011;10088;47.946;2.532;2022-12-15T16:49:44;19.10;;;12.63;;